ROMMA est une association bénévole à but non lucratif. Votre soutien est indispensable : ADHERER à ROMMA ou FAIRE un DON

Briord - (01, Ain)

Bugey (281 m)   Longitude: 05° 29' 13" E   Latitude: 45° 46' 37" N Station partenaire n°15
 

Détail journalier du     <<     >>

Température Precipitation Humidité Pression Vent Dir Rafale Dir. rafale Ensol.
Heure (°C) (mm) (%) (hPa) (km/h) (km/h) (min)
01:00 5.108610245ONO21NNO0
02:00 4.908610255O19OSO0
03:00 4.808710266NO19O0
04:00 4.508810276NO21N0
05:00 4.308710274NNO16NNO0
06:00 3.808710287NNO19N0
07:00 3.808610297NNE31N0
08:00 2.308810294NNO16NNO0
09:00 0.609210291---10SSE0
10:00 3.208710291---16NO50
11:00 4.908410292---16NO60
12:00 6.207710295ONO19ONO60
13:00 6.8075102810ONO24ONO60
14:00 6.607810279ONO23ONO50
15:00 7.207310266ONO27ONO60
16:00 7.207410261ONO15ONO60
17:00 3.6085102502ONO10
18:00 0.7090102500---0
19:00 -0.4091102500---0
20:00 -0.8092102500---0
21:00 -1.1092102500---0
22:00 -1.5092102400---0
23:00 -1.4091102400---0
minuit -1.30921023010SSE0

Graphique du 10-12-2019

 

Serveur OMMA